sensor_id;sensor_type;location;lat;lon;timestamp;P1;durP1;ratioP1;P2;durP2;ratioP2
55224;SDS011;41091;49.400;8.684;2024-01-30T00:02:11;10.38;;;7.07;;
55224;SDS011;41091;49.400;8.684;2024-01-30T00:04:37;11.93;;;7.47;;
55224;SDS011;41091;49.400;8.684;2024-01-30T00:07:05;10.77;;;6.90;;
55224;SDS011;41091;49.400;8.684;2024-01-30T00:09:30;11.38;;;7.43;;
55224;SDS011;41091;49.400;8.684;2024-01-30T00:11:58;11.55;;;7.55;;
55224;SDS011;41091;49.400;8.684;2024-01-30T00:14:23;10.25;;;7.80;;
55224;SDS011;41091;49.400;8.684;2024-01-30T00:16:51;14.02;;;7.80;;
55224;SDS011;41091;49.400;8.684;2024-01-30T00:19:17;13.30;;;6.55;;
55224;SDS011;41091;49.400;8.684;2024-01-30T00:21:42;9.40;;;7.35;;
55224;SDS011;41091;49.400;8.684;2024-01-30T00:24:08;16.80;;;7.82;;
55224;SDS011;41091;49.400;8.684;2024-01-30T00:26:33;13.75;;;7.80;;
55224;SDS011;41091;49.400;8.684;2024-01-30T00:28:58;13.45;;;8.00;;
55224;SDS011;41091;49.400;8.684;2024-01-30T00:31:24;10.60;;;7.22;;
55224;SDS011;41091;49.400;8.684;2024-01-30T00:33:51;13.07;;;6.70;;
55224;SDS011;41091;49.400;8.684;2024-01-30T00:36:17;15.32;;;7.30;;
55224;SDS011;41091;49.400;8.684;2024-01-30T00:38:42;10.85;;;7.15;;
55224;SDS011;41091;49.400;8.684;2024-01-30T00:41:08;12.77;;;8.20;;
55224;SDS011;41091;49.400;8.684;2024-01-30T00:43:34;12.35;;;7.45;;
55224;SDS011;41091;49.400;8.684;2024-01-30T00:46:02;11.70;;;7.45;;
55224;SDS011;41091;49.400;8.684;2024-01-30T00:48:28;13.30;;;7.82;;
55224;SDS011;41091;49.400;8.684;2024-01-30T00:50:53;13.15;;;7.25;;
55224;SDS011;41091;49.400;8.684;2024-01-30T00:53:21;7.60;;;6.75;;
55224;SDS011;41091;49.400;8.684;2024-01-30T00:55:47;17.00;;;6.90;;
55224;SDS011;41091;49.400;8.684;2024-01-30T00:58:14;12.52;;;7.80;;
55224;SDS011;41091;49.400;8.684;2024-01-30T01:00:40;13.35;;;7.35;;
55224;SDS011;41091;49.400;8.684;2024-01-30T01:03:05;8.90;;;7.70;;
55224;SDS011;41091;49.400;8.684;2024-01-30T01:05:33;8.85;;;6.93;;
55224;SDS011;41091;49.400;8.684;2024-01-30T01:07:59;10.93;;;7.55;;
55224;SDS011;41091;49.400;8.684;2024-01-30T01:10:24;12.25;;;7.20;;
55224;SDS011;41091;49.400;8.684;2024-01-30T01:12:49;11.40;;;7.82;;
55224;SDS011;41091;49.400;8.684;2024-01-30T01:15:15;10.77;;;7.68;;
55224;SDS011;41091;49.400;8.684;2024-01-30T01:17:45;9.00;;;7.18;;
55224;SDS011;41091;49.400;8.684;2024-01-30T01:20:11;11.85;;;7.22;;
55224;SDS011;41091;49.400;8.684;2024-01-30T01:22:38;12.90;;;7.32;;
55224;SDS011;41091;49.400;8.684;2024-01-30T01:25:04;14.50;;;8.35;;
55224;SDS011;41091;49.400;8.684;2024-01-30T01:27:33;16.15;;;7.85;;
55224;SDS011;41091;49.400;8.684;2024-01-30T01:30:05;13.20;;;7.53;;
55224;SDS011;41091;49.400;8.684;2024-01-30T01:32:34;11.30;;;6.82;;
55224;SDS011;41091;49.400;8.684;2024-01-30T01:35:02;17.83;;;8.68;;
55224;SDS011;41091;49.400;8.684;2024-01-30T01:37:30;11.77;;;7.15;;
55224;SDS011;41091;49.400;8.684;2024-01-30T01:39:56;11.05;;;6.90;;
55224;SDS011;41091;49.400;8.684;2024-01-30T01:42:21;12.18;;;6.57;;
55224;SDS011;41091;49.400;8.684;2024-01-30T01:44:50;12.20;;;7.88;;
55224;SDS011;41091;49.400;8.684;2024-01-30T01:47:17;9.25;;;7.00;;
55224;SDS011;41091;49.400;8.684;2024-01-30T01:49:45;9.10;;;6.75;;
55224;SDS011;41091;49.400;8.684;2024-01-30T01:52:10;9.52;;;6.90;;
55224;SDS011;41091;49.400;8.684;2024-01-30T01:54:35;8.98;;;6.75;;
55224;SDS011;41091;49.400;8.684;2024-01-30T01:57:01;9.85;;;6.85;;
55224;SDS011;41091;49.400;8.684;2024-01-30T01:59:27;11.60;;;6.97;;
55224;SDS011;41091;49.400;8.684;2024-01-30T02:01:54;11.30;;;7.40;;
55224;SDS011;41091;49.400;8.684;2024-01-30T02:04:23;9.77;;;7.25;;
55224;SDS011;41091;49.400;8.684;2024-01-30T02:06:49;12.85;;;6.72;;
55224;SDS011;41091;49.400;8.684;2024-01-30T02:09:14;11.05;;;7.20;;
55224;SDS011;41091;49.400;8.684;2024-01-30T02:11:42;9.95;;;6.80;;
55224;SDS011;41091;49.400;8.684;2024-01-30T02:14:07;11.40;;;7.13;;
55224;SDS011;41091;49.400;8.684;2024-01-30T02:16:33;12.15;;;8.23;;
55224;SDS011;41091;49.400;8.684;2024-01-30T02:19:04;11.38;;;7.10;;
55224;SDS011;41091;49.400;8.684;2024-01-30T02:21:30;11.52;;;6.30;;
55224;SDS011;41091;49.400;8.684;2024-01-30T02:23:55;10.43;;;6.38;;
55224;SDS011;41091;49.400;8.684;2024-01-30T02:26:24;7.90;;;6.43;;
55224;SDS011;41091;49.400;8.684;2024-01-30T02:28:49;6.72;;;5.80;;
55224;SDS011;41091;49.400;8.684;2024-01-30T02:31:15;8.48;;;6.30;;
55224;SDS011;41091;49.400;8.684;2024-01-30T02:33:40;7.20;;;5.38;;
55224;SDS011;41091;49.400;8.684;2024-01-30T02:36:07;5.38;;;4.78;;
55224;SDS011;41091;49.400;8.684;2024-01-30T02:38:35;8.20;;;5.00;;
55224;SDS011;41091;49.400;8.684;2024-01-30T02:41:00;10.00;;;5.82;;
55224;SDS011;41091;49.400;8.684;2024-01-30T02:43:25;6.78;;;4.90;;
55224;SDS011;41091;49.400;8.684;2024-01-30T02:45:53;14.25;;;5.60;;
55224;SDS011;41091;49.400;8.684;2024-01-30T02:48:18;11.32;;;5.05;;
55224;SDS011;41091;49.400;8.684;2024-01-30T02:50:44;8.10;;;4.82;;
55224;SDS011;41091;49.400;8.684;2024-01-30T02:53:09;5.88;;;4.30;;
55224;SDS011;41091;49.400;8.684;2024-01-30T02:55:37;7.35;;;5.45;;
55224;SDS011;41091;49.400;8.684;2024-01-30T02:58:02;8.85;;;4.47;;
55224;SDS011;41091;49.400;8.684;2024-01-30T03:00:30;6.30;;;4.88;;
55224;SDS011;41091;49.400;8.684;2024-01-30T03:02:58;5.20;;;4.38;;
55224;SDS011;41091;49.400;8.684;2024-01-30T03:05:23;5.00;;;4.47;;
55224;SDS011;41091;49.400;8.684;2024-01-30T03:07:49;5.88;;;4.38;;
55224;SDS011;41091;49.400;8.684;2024-01-30T03:10:14;5.70;;;5.15;;
55224;SDS011;41091;49.400;8.684;2024-01-30T03:12:39;8.82;;;4.50;;
55224;SDS011;41091;49.400;8.684;2024-01-30T03:15:05;9.48;;;4.13;;
55224;SDS011;41091;49.400;8.684;2024-01-30T03:17:30;6.00;;;5.00;;
55224;SDS011;41091;49.400;8.684;2024-01-30T03:19:56;4.70;;;4.20;;
55224;SDS011;41091;49.400;8.684;2024-01-30T03:22:24;7.88;;;4.88;;
55224;SDS011;41091;49.400;8.684;2024-01-30T03:24:49;4.20;;;3.85;;
55224;SDS011;41091;49.400;8.684;2024-01-30T03:27:17;5.10;;;4.15;;
55224;SDS011;41091;49.400;8.684;2024-01-30T03:29:44;11.43;;;5.32;;
55224;SDS011;41091;49.400;8.684;2024-01-30T03:32:09;5.43;;;4.15;;
55224;SDS011;41091;49.400;8.684;2024-01-30T03:34:35;6.40;;;4.50;;
55224;SDS011;41091;49.400;8.684;2024-01-30T03:37:00;7.15;;;4.63;;
55224;SDS011;41091;49.400;8.684;2024-01-30T03:39:30;6.30;;;4.43;;
55224;SDS011;41091;49.400;8.684;2024-01-30T03:41:55;7.85;;;4.80;;
55224;SDS011;41091;49.400;8.684;2024-01-30T03:44:23;4.55;;;4.22;;
55224;SDS011;41091;49.400;8.684;2024-01-30T03:46:51;7.15;;;4.68;;
55224;SDS011;41091;49.400;8.684;2024-01-30T03:49:16;7.65;;;4.22;;
55224;SDS011;41091;49.400;8.684;2024-01-30T03:51:41;6.05;;;4.50;;
55224;SDS011;41091;49.400;8.684;2024-01-30T03:54:07;5.45;;;4.65;;
55224;SDS011;41091;49.400;8.684;2024-01-30T03:56:32;5.07;;;4.57;;
55224;SDS011;41091;49.400;8.684;2024-01-30T03:59:00;6.70;;;5.55;;
55224;SDS011;41091;49.400;8.684;2024-01-30T04:01:30;7.35;;;4.85;;
55224;SDS011;41091;49.400;8.684;2024-01-30T04:03:58;6.95;;;4.93;;
55224;SDS011;41091;49.400;8.684;2024-01-30T04:06:26;5.90;;;4.97;;
55224;SDS011;41091;49.400;8.684;2024-01-30T04:08:51;10.25;;;4.85;;
55224;SDS011;41091;49.400;8.684;2024-01-30T04:11:18;6.22;;;5.03;;
55224;SDS011;41091;49.400;8.684;2024-01-30T04:13:44;4.30;;;3.90;;
55224;SDS011;41091;49.400;8.684;2024-01-30T04:16:18;6.28;;;5.03;;
55224;SDS011;41091;49.400;8.684;2024-01-30T04:18:48;9.80;;;4.68;;
55224;SDS011;41091;49.400;8.684;2024-01-30T04:21:23;5.15;;;4.68;;
55224;SDS011;41091;49.400;8.684;2024-01-30T04:23:53;8.38;;;5.20;;
55224;SDS011;41091;49.400;8.684;2024-01-30T04:26:21;6.30;;;4.82;;
55224;SDS011;41091;49.400;8.684;2024-01-30T04:31:45;8.13;;;4.32;;
55224;SDS011;41091;49.400;8.684;2024-01-30T04:34:13;4.88;;;4.47;;
55224;SDS011;41091;49.400;8.684;2024-01-30T04:36:38;11.90;;;4.53;;
55224;SDS011;41091;49.400;8.684;2024-01-30T04:39:03;6.55;;;5.30;;
55224;SDS011;41091;49.400;8.684;2024-01-30T04:41:29;5.15;;;4.60;;
55224;SDS011;41091;49.400;8.684;2024-01-30T04:43:56;5.30;;;4.05;;
55224;SDS011;41091;49.400;8.684;2024-01-30T04:46:21;3.97;;;3.70;;
55224;SDS011;41091;49.400;8.684;2024-01-30T04:49:20;7.20;;;4.30;;
55224;SDS011;41091;49.400;8.684;2024-01-30T04:51:41;7.03;;;4.50;;
55224;SDS011;41091;49.400;8.684;2024-01-30T04:54:08;8.40;;;4.72;;
55224;SDS011;41091;49.400;8.684;2024-01-30T04:56:35;6.07;;;4.72;;
55224;SDS011;41091;49.400;8.684;2024-01-30T04:59:04;9.20;;;4.82;;
55224;SDS011;41091;49.400;8.684;2024-01-30T05:01:45;7.95;;;5.18;;
55224;SDS011;41091;49.400;8.684;2024-01-30T05:04:13;8.65;;;5.60;;
55224;SDS011;41091;49.400;8.684;2024-01-30T05:06:44;6.55;;;4.60;;
55224;SDS011;41091;49.400;8.684;2024-01-30T05:09:09;7.88;;;4.53;;
55224;SDS011;41091;49.400;8.684;2024-01-30T05:11:41;7.57;;;4.93;;
55224;SDS011;41091;49.400;8.684;2024-01-30T05:14:09;5.40;;;4.68;;
55224;SDS011;41091;49.400;8.684;2024-01-30T05:16:42;8.45;;;4.85;;
55224;SDS011;41091;49.400;8.684;2024-01-30T05:19:12;4.88;;;4.32;;
55224;SDS011;41091;49.400;8.684;2024-01-30T05:21:43;7.00;;;5.10;;
55224;SDS011;41091;49.400;8.684;2024-01-30T05:24:11;6.15;;;5.55;;
55224;SDS011;41091;49.400;8.684;2024-01-30T05:26:41;6.18;;;5.35;;
55224;SDS011;41091;49.400;8.684;2024-01-30T05:29:06;5.60;;;4.55;;
55224;SDS011;41091;49.400;8.684;2024-01-30T05:31:35;4.95;;;4.45;;
55224;SDS011;41091;49.400;8.684;2024-01-30T05:34:04;5.32;;;4.65;;
55224;SDS011;41091;49.400;8.684;2024-01-30T05:36:45;6.72;;;4.60;;
55224;SDS011;41091;49.400;8.684;2024-01-30T05:39:10;5.57;;;4.75;;
55224;SDS011;41091;49.400;8.684;2024-01-30T05:41:36;6.10;;;4.85;;
55224;SDS011;41091;49.400;8.684;2024-01-30T05:44:03;6.82;;;5.43;;
55224;SDS011;41091;49.400;8.684;2024-01-30T05:46:31;6.85;;;5.63;;
55224;SDS011;41091;49.400;8.684;2024-01-30T05:48:56;4.68;;;4.30;;
55224;SDS011;41091;49.400;8.684;2024-01-30T05:51:21;4.57;;;4.18;;
55224;SDS011;41091;49.400;8.684;2024-01-30T05:53:47;4.63;;;4.13;;
55224;SDS011;41091;49.400;8.684;2024-01-30T05:56:12;9.00;;;4.75;;
55224;SDS011;41091;49.400;8.684;2024-01-30T05:58:38;6.40;;;5.78;;
55224;SDS011;41091;49.400;8.684;2024-01-30T06:01:06;5.70;;;4.63;;
55224;SDS011;41091;49.400;8.684;2024-01-30T06:03:33;6.47;;;4.57;;
55224;SDS011;41091;49.400;8.684;2024-01-30T06:05:58;5.10;;;4.70;;
55224;SDS011;41091;49.400;8.684;2024-01-30T06:08:26;5.68;;;5.03;;
55224;SDS011;41091;49.400;8.684;2024-01-30T06:10:51;6.40;;;5.05;;
55224;SDS011;41091;49.400;8.684;2024-01-30T06:13:17;5.93;;;4.78;;
55224;SDS011;41091;49.400;8.684;2024-01-30T06:15:42;5.60;;;4.60;;
55224;SDS011;41091;49.400;8.684;2024-01-30T06:18:07;5.28;;;4.78;;
55224;SDS011;41091;49.400;8.684;2024-01-30T06:20:33;5.55;;;4.78;;
55224;SDS011;41091;49.400;8.684;2024-01-30T06:22:59;5.15;;;4.53;;
55224;SDS011;41091;49.400;8.684;2024-01-30T06:25:24;8.18;;;4.78;;
55224;SDS011;41091;49.400;8.684;2024-01-30T06:27:49;7.30;;;5.30;;
55224;SDS011;41091;49.400;8.684;2024-01-30T06:30:15;7.55;;;4.57;;
55224;SDS011;41091;49.400;8.684;2024-01-30T06:32:42;8.50;;;5.95;;
55224;SDS011;41091;49.400;8.684;2024-01-30T06:35:08;12.13;;;6.32;;
55224;SDS011;41091;49.400;8.684;2024-01-30T06:37:37;10.15;;;5.65;;
55224;SDS011;41091;49.400;8.684;2024-01-30T06:40:05;8.45;;;6.65;;
55224;SDS011;41091;49.400;8.684;2024-01-30T06:42:34;6.35;;;5.70;;
55224;SDS011;41091;49.400;8.684;2024-01-30T06:45:04;10.77;;;7.63;;
55224;SDS011;41091;49.400;8.684;2024-01-30T06:47:32;10.15;;;6.85;;
55224;SDS011;41091;49.400;8.684;2024-01-30T06:50:00;9.63;;;7.15;;
55224;SDS011;41091;49.400;8.684;2024-01-30T06:52:27;8.93;;;6.57;;
55224;SDS011;41091;49.400;8.684;2024-01-30T06:54:54;8.52;;;6.22;;
55224;SDS011;41091;49.400;8.684;2024-01-30T06:57:19;12.15;;;6.03;;
55224;SDS011;41091;49.400;8.684;2024-01-30T06:59:45;10.45;;;5.22;;
55224;SDS011;41091;49.400;8.684;2024-01-30T07:02:11;5.20;;;4.70;;
55224;SDS011;41091;49.400;8.684;2024-01-30T07:04:36;8.82;;;6.10;;
55224;SDS011;41091;49.400;8.684;2024-01-30T07:07:06;5.43;;;4.53;;
55224;SDS011;41091;49.400;8.684;2024-01-30T07:09:39;5.63;;;4.72;;
55224;SDS011;41091;49.400;8.684;2024-01-30T07:12:04;5.93;;;5.10;;
55224;SDS011;41091;49.400;8.684;2024-01-30T07:14:31;5.50;;;5.05;;
55224;SDS011;41091;49.400;8.684;2024-01-30T07:16:56;7.00;;;5.43;;
55224;SDS011;41091;49.400;8.684;2024-01-30T07:19:21;8.82;;;5.05;;
55224;SDS011;41091;49.400;8.684;2024-01-30T07:21:47;8.55;;;5.13;;
55224;SDS011;41091;49.400;8.684;2024-01-30T07:24:12;5.68;;;5.07;;
55224;SDS011;41091;49.400;8.684;2024-01-30T07:26:38;10.07;;;5.93;;
55224;SDS011;41091;49.400;8.684;2024-01-30T07:29:03;8.00;;;5.53;;
55224;SDS011;41091;49.400;8.684;2024-01-30T07:31:35;8.82;;;6.22;;
55224;SDS011;41091;49.400;8.684;2024-01-30T07:34:03;5.53;;;5.03;;
55224;SDS011;41091;49.400;8.684;2024-01-30T07:36:29;7.25;;;4.95;;
55224;SDS011;41091;49.400;8.684;2024-01-30T07:38:54;7.07;;;5.57;;
55224;SDS011;41091;49.400;8.684;2024-01-30T07:41:19;9.38;;;5.63;;
55224;SDS011;41091;49.400;8.684;2024-01-30T07:43:45;6.18;;;4.70;;
55224;SDS011;41091;49.400;8.684;2024-01-30T07:46:10;6.80;;;5.68;;
55224;SDS011;41091;49.400;8.684;2024-01-30T07:48:35;9.98;;;6.35;;
55224;SDS011;41091;49.400;8.684;2024-01-30T07:51:01;8.55;;;6.18;;
55224;SDS011;41091;49.400;8.684;2024-01-30T07:53:30;10.85;;;5.95;;
55224;SDS011;41091;49.400;8.684;2024-01-30T07:55:57;10.05;;;6.03;;
55224;SDS011;41091;49.400;8.684;2024-01-30T07:58:25;6.07;;;5.18;;
55224;SDS011;41091;49.400;8.684;2024-01-30T08:00:53;14.43;;;6.40;;
55224;SDS011;41091;49.400;8.684;2024-01-30T08:03:18;11.88;;;6.47;;
55224;SDS011;41091;49.400;8.684;2024-01-30T08:05:44;9.55;;;5.35;;
55224;SDS011;41091;49.400;8.684;2024-01-30T08:08:11;5.28;;;4.78;;
55224;SDS011;41091;49.400;8.684;2024-01-30T08:10:36;6.45;;;5.32;;
55224;SDS011;41091;49.400;8.684;2024-01-30T08:13:02;7.97;;;5.90;;
55224;SDS011;41091;49.400;8.684;2024-01-30T08:15:27;8.82;;;5.88;;
55224;SDS011;41091;49.400;8.684;2024-01-30T08:17:54;6.55;;;5.82;;
55224;SDS011;41091;49.400;8.684;2024-01-30T08:20:24;7.95;;;5.50;;
55224;SDS011;41091;49.400;8.684;2024-01-30T08:22:49;7.95;;;5.25;;
55224;SDS011;41091;49.400;8.684;2024-01-30T08:25:15;6.13;;;5.47;;
55224;SDS011;41091;49.400;8.684;2024-01-30T08:27:42;8.98;;;6.32;;
55224;SDS011;41091;49.400;8.684;2024-01-30T08:30:08;7.15;;;5.75;;
55224;SDS011;41091;49.400;8.684;2024-01-30T08:32:33;6.70;;;5.40;;
55224;SDS011;41091;49.400;8.684;2024-01-30T08:34:59;8.35;;;5.45;;
55224;SDS011;41091;49.400;8.684;2024-01-30T08:37:24;6.53;;;5.60;;
55224;SDS011;41091;49.400;8.684;2024-01-30T08:39:52;7.53;;;5.65;;
55224;SDS011;41091;49.400;8.684;2024-01-30T08:42:19;8.18;;;5.53;;
55224;SDS011;41091;49.400;8.684;2024-01-30T08:44:47;6.10;;;5.45;;
55224;SDS011;41091;49.400;8.684;2024-01-30T08:47:14;8.50;;;5.53;;
55224;SDS011;41091;49.400;8.684;2024-01-30T08:49:41;5.38;;;4.93;;
55224;SDS011;41091;49.400;8.684;2024-01-30T08:52:10;11.25;;;5.60;;
55224;SDS011;41091;49.400;8.684;2024-01-30T08:54:36;8.65;;;5.50;;
55224;SDS011;41091;49.400;8.684;2024-01-30T08:57:04;10.73;;;5.53;;
55224;SDS011;41091;49.400;8.684;2024-01-30T08:59:29;7.93;;;5.55;;
55224;SDS011;41091;49.400;8.684;2024-01-30T09:01:57;8.77;;;6.68;;
55224;SDS011;41091;49.400;8.684;2024-01-30T09:04:25;11.63;;;6.30;;
55224;SDS011;41091;49.400;8.684;2024-01-30T09:06:50;12.90;;;6.82;;
55224;SDS011;41091;49.400;8.684;2024-01-30T09:09:20;9.77;;;5.90;;
55224;SDS011;41091;49.400;8.684;2024-01-30T09:11:49;8.23;;;6.40;;
55224;SDS011;41091;49.400;8.684;2024-01-30T09:14:14;22.88;;;6.55;;
55224;SDS011;41091;49.400;8.684;2024-01-30T09:16:40;6.55;;;5.68;;
55224;SDS011;41091;49.400;8.684;2024-01-30T09:19:07;7.75;;;6.50;;
55224;SDS011;41091;49.400;8.684;2024-01-30T09:21:33;7.07;;;5.47;;
55224;SDS011;41091;49.400;8.684;2024-01-30T09:24:02;7.78;;;6.18;;
55224;SDS011;41091;49.400;8.684;2024-01-30T09:26:30;8.13;;;6.15;;
55224;SDS011;41091;49.400;8.684;2024-01-30T09:28:56;11.52;;;5.72;;
55224;SDS011;41091;49.400;8.684;2024-01-30T09:31:21;6.97;;;5.35;;
55224;SDS011;41091;49.400;8.684;2024-01-30T09:33:46;7.28;;;5.57;;
55224;SDS011;41091;49.400;8.684;2024-01-30T09:36:13;13.05;;;6.10;;
55224;SDS011;41091;49.400;8.684;2024-01-30T09:38:40;15.88;;;6.93;;
55224;SDS011;41091;49.400;8.684;2024-01-30T09:41:06;8.50;;;6.25;;
55224;SDS011;41091;49.400;8.684;2024-01-30T09:43:34;8.57;;;6.65;;
55224;SDS011;41091;49.400;8.684;2024-01-30T09:46:03;10.13;;;6.65;;
55224;SDS011;41091;49.400;8.684;2024-01-30T09:48:29;7.18;;;6.05;;
55224;SDS011;41091;49.400;8.684;2024-01-30T09:50:55;9.75;;;6.82;;
55224;SDS011;41091;49.400;8.684;2024-01-30T09:53:24;10.48;;;7.03;;
55224;SDS011;41091;49.400;8.684;2024-01-30T09:55:50;8.52;;;6.28;;
55224;SDS011;41091;49.400;8.684;2024-01-30T09:58:17;9.57;;;6.90;;
55224;SDS011;41091;49.400;8.684;2024-01-30T10:00:43;9.32;;;7.32;;
55224;SDS011;41091;49.400;8.684;2024-01-30T10:03:08;10.57;;;6.07;;
55224;SDS011;41091;49.400;8.684;2024-01-30T10:05:35;10.55;;;6.15;;
55224;SDS011;41091;49.400;8.684;2024-01-30T10:08:05;9.90;;;6.15;;
55224;SDS011;41091;49.400;8.684;2024-01-30T10:10:33;10.73;;;6.50;;
55224;SDS011;41091;49.400;8.684;2024-01-30T10:13:01;7.80;;;6.32;;
55224;SDS011;41091;49.400;8.684;2024-01-30T10:15:29;7.50;;;6.32;;
55224;SDS011;41091;49.400;8.684;2024-01-30T10:17:54;11.30;;;6.35;;
55224;SDS011;41091;49.400;8.684;2024-01-30T10:20:20;8.70;;;7.15;;
55224;SDS011;41091;49.400;8.684;2024-01-30T10:22:47;11.27;;;6.75;;
55224;SDS011;41091;49.400;8.684;2024-01-30T10:25:13;8.98;;;7.05;;
55224;SDS011;41091;49.400;8.684;2024-01-30T10:27:41;8.00;;;5.25;;
55224;SDS011;41091;49.400;8.684;2024-01-30T10:30:09;6.38;;;5.47;;
55224;SDS011;41091;49.400;8.684;2024-01-30T10:32:35;7.85;;;5.57;;
55224;SDS011;41091;49.400;8.684;2024-01-30T10:35:01;5.72;;;5.20;;
55224;SDS011;41091;49.400;8.684;2024-01-30T10:37:26;7.75;;;5.60;;
55224;SDS011;41091;49.400;8.684;2024-01-30T10:39:54;10.05;;;5.57;;
55224;SDS011;41091;49.400;8.684;2024-01-30T10:42:21;7.28;;;5.57;;
55224;SDS011;41091;49.400;8.684;2024-01-30T10:47:29;7.53;;;6.00;;
55224;SDS011;41091;49.400;8.684;2024-01-30T10:49:55;5.90;;;5.32;;
55224;SDS011;41091;49.400;8.684;2024-01-30T10:52:21;9.13;;;5.63;;
55224;SDS011;41091;49.400;8.684;2024-01-30T10:54:51;13.15;;;5.97;;
55224;SDS011;41091;49.400;8.684;2024-01-30T10:57:17;10.25;;;6.47;;
55224;SDS011;41091;49.400;8.684;2024-01-30T10:59:43;6.65;;;5.18;;
55224;SDS011;41091;49.400;8.684;2024-01-30T11:02:09;6.88;;;5.63;;
55224;SDS011;41091;49.400;8.684;2024-01-30T11:04:36;10.45;;;6.03;;
55224;SDS011;41091;49.400;8.684;2024-01-30T11:07:02;6.72;;;5.22;;
55224;SDS011;41091;49.400;8.684;2024-01-30T11:09:29;7.25;;;5.85;;
55224;SDS011;41091;49.400;8.684;2024-01-30T11:11:58;7.82;;;5.93;;
55224;SDS011;41091;49.400;8.684;2024-01-30T11:14:29;10.32;;;6.10;;
55224;SDS011;41091;49.400;8.684;2024-01-30T11:16:58;15.13;;;6.18;;
55224;SDS011;41091;49.400;8.684;2024-01-30T11:19:24;13.65;;;6.60;;
55224;SDS011;41091;49.400;8.684;2024-01-30T11:21:52;6.82;;;5.63;;
55224;SDS011;41091;49.400;8.684;2024-01-30T11:24:22;8.40;;;6.43;;
55224;SDS011;41091;49.400;8.684;2024-01-30T11:26:55;8.27;;;5.78;;
55224;SDS011;41091;49.400;8.684;2024-01-30T11:29:29;6.93;;;6.22;;
55224;SDS011;41091;49.400;8.684;2024-01-30T11:31:57;9.60;;;5.45;;
55224;SDS011;41091;49.400;8.684;2024-01-30T11:34:24;10.40;;;6.40;;
55224;SDS011;41091;49.400;8.684;2024-01-30T11:36:55;11.85;;;6.55;;
55224;SDS011;41091;49.400;8.684;2024-01-30T11:39:25;9.48;;;6.40;;
55224;SDS011;41091;49.400;8.684;2024-01-30T11:41:51;6.85;;;5.68;;
55224;SDS011;41091;49.400;8.684;2024-01-30T11:44:22;15.32;;;6.45;;
55224;SDS011;41091;49.400;8.684;2024-01-30T11:46:48;9.63;;;6.78;;
55224;SDS011;41091;49.400;8.684;2024-01-30T11:49:14;10.05;;;6.93;;
55224;SDS011;41091;49.400;8.684;2024-01-30T11:51:39;6.93;;;6.10;;
55224;SDS011;41091;49.400;8.684;2024-01-30T11:54:07;7.97;;;5.90;;
55224;SDS011;41091;49.400;8.684;2024-01-30T11:56:33;22.02;;;7.15;;
55224;SDS011;41091;49.400;8.684;2024-01-30T11:59:00;14.80;;;7.30;;
55224;SDS011;41091;49.400;8.684;2024-01-30T12:01:28;14.40;;;6.95;;
55224;SDS011;41091;49.400;8.684;2024-01-30T12:03:59;11.85;;;7.05;;
55224;SDS011;41091;49.400;8.684;2024-01-30T12:06:24;9.93;;;7.05;;
55224;SDS011;41091;49.400;8.684;2024-01-30T12:08:59;8.77;;;6.82;;
55224;SDS011;41091;49.400;8.684;2024-01-30T12:11:25;14.63;;;7.40;;
55224;SDS011;41091;49.400;8.684;2024-01-30T12:13:52;11.80;;;7.13;;
55224;SDS011;41091;49.400;8.684;2024-01-30T12:16:20;12.77;;;6.85;;
55224;SDS011;41091;49.400;8.684;2024-01-30T12:18:45;8.63;;;7.40;;
55224;SDS011;41091;49.400;8.684;2024-01-30T12:21:16;16.40;;;6.65;;
55224;SDS011;41091;49.400;8.684;2024-01-30T12:23:41;10.55;;;7.32;;
55224;SDS011;41091;49.400;8.684;2024-01-30T12:26:09;11.10;;;6.25;;
55224;SDS011;41091;49.400;8.684;2024-01-30T12:28:34;8.60;;;7.25;;
55224;SDS011;41091;49.400;8.684;2024-01-30T12:31:03;9.38;;;6.80;;
55224;SDS011;41091;49.400;8.684;2024-01-30T12:33:29;8.40;;;6.15;;
55224;SDS011;41091;49.400;8.684;2024-01-30T12:35:55;11.13;;;6.13;;
55224;SDS011;41091;49.400;8.684;2024-01-30T12:38:21;9.57;;;6.10;;
55224;SDS011;41091;49.400;8.684;2024-01-30T12:40:52;7.97;;;6.03;;
55224;SDS011;41091;49.400;8.684;2024-01-30T12:43:20;7.25;;;6.20;;
55224;SDS011;41091;49.400;8.684;2024-01-30T12:45:45;8.15;;;5.90;;
55224;SDS011;41091;49.400;8.684;2024-01-30T12:48:14;14.05;;;6.55;;
55224;SDS011;41091;49.400;8.684;2024-01-30T12:50:40;8.40;;;6.00;;
55224;SDS011;41091;49.400;8.684;2024-01-30T12:53:06;12.90;;;6.20;;
55224;SDS011;41091;49.400;8.684;2024-01-30T12:55:34;15.15;;;6.70;;
55224;SDS011;41091;49.400;8.684;2024-01-30T12:57:59;8.60;;;6.32;;
55224;SDS011;41091;49.400;8.684;2024-01-30T13:00:25;7.20;;;5.90;;
55224;SDS011;41091;49.400;8.684;2024-01-30T13:02:50;6.82;;;5.70;;
55224;SDS011;41091;49.400;8.684;2024-01-30T13:05:15;7.10;;;5.45;;
55224;SDS011;41091;49.400;8.684;2024-01-30T13:07:43;10.52;;;5.30;;
55224;SDS011;41091;49.400;8.684;2024-01-30T13:10:08;6.57;;;5.80;;
55224;SDS011;41091;49.400;8.684;2024-01-30T13:12:34;8.88;;;5.50;;
55224;SDS011;41091;49.400;8.684;2024-01-30T13:15:03;9.60;;;6.50;;
55224;SDS011;41091;49.400;8.684;2024-01-30T13:17:30;9.93;;;5.57;;
55224;SDS011;41091;49.400;8.684;2024-01-30T13:20:00;7.97;;;5.80;;
55224;SDS011;41091;49.400;8.684;2024-01-30T13:22:26;8.07;;;6.03;;
55224;SDS011;41091;49.400;8.684;2024-01-30T13:24:51;7.65;;;5.38;;
55224;SDS011;41091;49.400;8.684;2024-01-30T13:27:18;12.32;;;6.80;;
55224;SDS011;41091;49.400;8.684;2024-01-30T13:29:45;6.40;;;5.68;;
55224;SDS011;41091;49.400;8.684;2024-01-30T13:32:10;6.70;;;5.70;;
55224;SDS011;41091;49.400;8.684;2024-01-30T13:34:35;7.72;;;5.90;;
55224;SDS011;41091;49.400;8.684;2024-01-30T13:37:04;13.57;;;6.82;;
55224;SDS011;41091;49.400;8.684;2024-01-30T13:39:30;16.42;;;5.78;;
55224;SDS011;41091;49.400;8.684;2024-01-30T13:41:58;7.05;;;5.43;;
55224;SDS011;41091;49.400;8.684;2024-01-30T13:44:28;11.30;;;5.93;;
55224;SDS011;41091;49.400;8.684;2024-01-30T13:46:53;8.73;;;5.10;;
55224;SDS011;41091;49.400;8.684;2024-01-30T13:49:20;6.10;;;5.07;;
55224;SDS011;41091;49.400;8.684;2024-01-30T13:51:45;8.65;;;6.20;;
55224;SDS011;41091;49.400;8.684;2024-01-30T13:54:10;7.15;;;5.43;;
55224;SDS011;41091;49.400;8.684;2024-01-30T13:56:38;6.97;;;6.20;;
55224;SDS011;41091;49.400;8.684;2024-01-30T13:59:03;12.13;;;5.88;;
55224;SDS011;41091;49.400;8.684;2024-01-30T14:01:32;8.75;;;5.78;;
55224;SDS011;41091;49.400;8.684;2024-01-30T14:03:57;12.00;;;6.35;;
55224;SDS011;41091;49.400;8.684;2024-01-30T14:06:23;7.97;;;5.85;;
55224;SDS011;41091;49.400;8.684;2024-01-30T14:08:48;8.50;;;5.40;;
55224;SDS011;41091;49.400;8.684;2024-01-30T14:11:16;8.88;;;6.20;;
55224;SDS011;41091;49.400;8.684;2024-01-30T14:13:43;14.05;;;5.70;;
55224;SDS011;41091;49.400;8.684;2024-01-30T14:16:09;5.57;;;5.03;;
55224;SDS011;41091;49.400;8.684;2024-01-30T14:18:34;8.23;;;6.20;;
55224;SDS011;41091;49.400;8.684;2024-01-30T14:20:59;7.53;;;6.32;;
55224;SDS011;41091;49.400;8.684;2024-01-30T14:23:27;9.63;;;5.68;;
55224;SDS011;41091;49.400;8.684;2024-01-30T14:25:53;7.68;;;5.85;;
55224;SDS011;41091;49.400;8.684;2024-01-30T14:28:18;7.00;;;5.03;;
55224;SDS011;41091;49.400;8.684;2024-01-30T14:30:43;29.75;;;6.20;;
55224;SDS011;41091;49.400;8.684;2024-01-30T14:33:12;6.68;;;5.50;;
55224;SDS011;41091;49.400;8.684;2024-01-30T14:35:37;5.35;;;4.85;;
55224;SDS011;41091;49.400;8.684;2024-01-30T14:38:02;11.25;;;5.57;;
55224;SDS011;41091;49.400;8.684;2024-01-30T14:40:30;6.97;;;5.22;;
55224;SDS011;41091;49.400;8.684;2024-01-30T14:42:58;7.32;;;5.25;;
55224;SDS011;41091;49.400;8.684;2024-01-30T14:45:25;6.15;;;5.35;;
55224;SDS011;41091;49.400;8.684;2024-01-30T14:47:51;8.45;;;5.75;;